sensor_id;sensor_type;location;lat;lon;timestamp;P1;durP1;ratioP1;P2;durP2;ratioP2
41436;SDS011;27178;49.460;10.850;2023-03-03T00:01:59;16.47;;;14.77;;
41436;SDS011;27178;49.460;10.850;2023-03-03T00:04:28;19.67;;;15.83;;
41436;SDS011;27178;49.460;10.850;2023-03-03T00:06:57;16.47;;;14.73;;
41436;SDS011;27178;49.460;10.850;2023-03-03T00:09:26;17.23;;;15.30;;
41436;SDS011;27178;49.460;10.850;2023-03-03T00:11:55;17.70;;;14.97;;
41436;SDS011;27178;49.460;10.850;2023-03-03T00:14:26;18.67;;;15.53;;
41436;SDS011;27178;49.460;10.850;2023-03-03T00:16:58;17.63;;;14.20;;
41436;SDS011;27178;49.460;10.850;2023-03-03T00:19:40;18.23;;;15.00;;
41436;SDS011;27178;49.460;10.850;2023-03-03T00:22:13;17.07;;;15.00;;
41436;SDS011;27178;49.460;10.850;2023-03-03T00:24:49;18.50;;;14.47;;
41436;SDS011;27178;49.460;10.850;2023-03-03T00:27:19;17.23;;;15.10;;
41436;SDS011;27178;49.460;10.850;2023-03-03T00:29:55;19.33;;;14.77;;
41436;SDS011;27178;49.460;10.850;2023-03-03T00:32:25;16.77;;;14.87;;
41436;SDS011;27178;49.460;10.850;2023-03-03T00:35:00;17.20;;;14.53;;
41436;SDS011;27178;49.460;10.850;2023-03-03T00:37:46;15.30;;;13.70;;
41436;SDS011;27178;49.460;10.850;2023-03-03T00:40:20;15.83;;;14.13;;
41436;SDS011;27178;49.460;10.850;2023-03-03T00:42:51;16.00;;;14.30;;
41436;SDS011;27178;49.460;10.850;2023-03-03T00:45:31;16.73;;;15.03;;
41436;SDS011;27178;49.460;10.850;2023-03-03T00:50:54;17.47;;;14.80;;
41436;SDS011;27178;49.460;10.850;2023-03-03T00:53:25;16.53;;;14.83;;
41436;SDS011;27178;49.460;10.850;2023-03-03T00:55:54;15.90;;;14.30;;
41436;SDS011;27178;49.460;10.850;2023-03-03T00:58:24;16.40;;;14.70;;
41436;SDS011;27178;49.460;10.850;2023-03-03T01:00:53;15.80;;;14.10;;
41436;SDS011;27178;49.460;10.850;2023-03-03T01:03:25;17.67;;;15.77;;
41436;SDS011;27178;49.460;10.850;2023-03-03T01:05:55;16.47;;;14.10;;
41436;SDS011;27178;49.460;10.850;2023-03-03T01:08:23;16.63;;;14.93;;
41436;SDS011;27178;49.460;10.850;2023-03-03T01:10:53;15.90;;;14.27;;
41436;SDS011;27178;49.460;10.850;2023-03-03T01:13:25;16.67;;;14.97;;
41436;SDS011;27178;49.460;10.850;2023-03-03T01:15:55;18.37;;;16.13;;
41436;SDS011;27178;49.460;10.850;2023-03-03T01:18:25;16.20;;;14.37;;
41436;SDS011;27178;49.460;10.850;2023-03-03T01:20:55;15.97;;;14.33;;
41436;SDS011;27178;49.460;10.850;2023-03-03T01:23:23;16.83;;;15.00;;
41436;SDS011;27178;49.460;10.850;2023-03-03T01:25:51;16.67;;;14.93;;
41436;SDS011;27178;49.460;10.850;2023-03-03T01:28:19;16.90;;;14.33;;
41436;SDS011;27178;49.460;10.850;2023-03-03T01:30:48;18.23;;;14.97;;
41436;SDS011;27178;49.460;10.850;2023-03-03T01:33:17;16.07;;;14.47;;
41436;SDS011;27178;49.460;10.850;2023-03-03T01:35:46;17.40;;;14.80;;
41436;SDS011;27178;49.460;10.850;2023-03-03T01:38:16;16.53;;;14.80;;
41436;SDS011;27178;49.460;10.850;2023-03-03T01:40:50;17.33;;;14.33;;
41436;SDS011;27178;49.460;10.850;2023-03-03T01:43:19;16.33;;;14.43;;
41436;SDS011;27178;49.460;10.850;2023-03-03T01:48:57;16.13;;;14.53;;
41436;SDS011;27178;49.460;10.850;2023-03-03T01:51:30;15.87;;;13.70;;
41436;SDS011;27178;49.460;10.850;2023-03-03T01:54:03;16.27;;;14.63;;
41436;SDS011;27178;49.460;10.850;2023-03-03T01:56:36;16.67;;;14.73;;
41436;SDS011;27178;49.460;10.850;2023-03-03T01:59:05;16.77;;;14.73;;
41436;SDS011;27178;49.460;10.850;2023-03-03T02:01:38;17.67;;;14.90;;
41436;SDS011;27178;49.460;10.850;2023-03-03T02:04:09;18.27;;;15.57;;
41436;SDS011;27178;49.460;10.850;2023-03-03T02:06:37;17.73;;;15.20;;
41436;SDS011;27178;49.460;10.850;2023-03-03T02:09:10;16.67;;;14.00;;
41436;SDS011;27178;49.460;10.850;2023-03-03T02:11:44;17.07;;;15.27;;
41436;SDS011;27178;49.460;10.850;2023-03-03T02:14:17;16.13;;;14.43;;
41436;SDS011;27178;49.460;10.850;2023-03-03T02:16:45;16.37;;;14.67;;
41436;SDS011;27178;49.460;10.850;2023-03-03T02:19:17;19.23;;;17.13;;
41436;SDS011;27178;49.460;10.850;2023-03-03T02:21:50;17.30;;;15.43;;
41436;SDS011;27178;49.460;10.850;2023-03-03T02:24:23;16.33;;;13.77;;
41436;SDS011;27178;49.460;10.850;2023-03-03T02:26:56;17.50;;;15.70;;
41436;SDS011;27178;49.460;10.850;2023-03-03T02:29:25;17.77;;;14.93;;
41436;SDS011;27178;49.460;10.850;2023-03-03T02:31:54;16.57;;;14.37;;
41436;SDS011;27178;49.460;10.850;2023-03-03T02:34:22;16.90;;;15.10;;
41436;SDS011;27178;49.460;10.850;2023-03-03T02:36:51;16.57;;;14.83;;
41436;SDS011;27178;49.460;10.850;2023-03-03T02:39:19;17.03;;;15.23;;
41436;SDS011;27178;49.460;10.850;2023-03-03T02:41:49;17.37;;;15.50;;
41436;SDS011;27178;49.460;10.850;2023-03-03T02:44:23;15.93;;;13.67;;
41436;SDS011;27178;49.460;10.850;2023-03-03T02:46:53;16.63;;;14.67;;
41436;SDS011;27178;49.460;10.850;2023-03-03T02:49:23;15.63;;;14.00;;
41436;SDS011;27178;49.460;10.850;2023-03-03T02:51:53;17.17;;;15.07;;
41436;SDS011;27178;49.460;10.850;2023-03-03T02:54:22;16.87;;;15.03;;
41436;SDS011;27178;49.460;10.850;2023-03-03T02:56:52;15.93;;;14.17;;
41436;SDS011;27178;49.460;10.850;2023-03-03T02:59:20;16.97;;;14.47;;
41436;SDS011;27178;49.460;10.850;2023-03-03T03:01:49;15.80;;;14.13;;
41436;SDS011;27178;49.460;10.850;2023-03-03T03:04:19;17.23;;;15.43;;
41436;SDS011;27178;49.460;10.850;2023-03-03T03:06:49;17.17;;;15.00;;
41436;SDS011;27178;49.460;10.850;2023-03-03T03:09:17;16.50;;;14.37;;
41436;SDS011;27178;49.460;10.850;2023-03-03T03:11:48;16.37;;;14.57;;
41436;SDS011;27178;49.460;10.850;2023-03-03T03:14:16;16.43;;;14.40;;
41436;SDS011;27178;49.460;10.850;2023-03-03T03:16:44;16.73;;;14.67;;
41436;SDS011;27178;49.460;10.850;2023-03-03T03:19:14;15.97;;;14.27;;
41436;SDS011;27178;49.460;10.850;2023-03-03T03:21:43;16.83;;;15.03;;
41436;SDS011;27178;49.460;10.850;2023-03-03T03:24:11;17.60;;;13.67;;
41436;SDS011;27178;49.460;10.850;2023-03-03T03:26:39;16.27;;;13.80;;
41436;SDS011;27178;49.460;10.850;2023-03-03T03:29:07;17.57;;;14.73;;
41436;SDS011;27178;49.460;10.850;2023-03-03T03:31:36;17.03;;;13.83;;
41436;SDS011;27178;49.460;10.850;2023-03-03T03:34:05;17.43;;;14.27;;
41436;SDS011;27178;49.460;10.850;2023-03-03T03:36:34;16.23;;;14.53;;
41436;SDS011;27178;49.460;10.850;2023-03-03T03:39:03;19.57;;;15.10;;
41436;SDS011;27178;49.460;10.850;2023-03-03T03:41:32;17.30;;;15.13;;
41436;SDS011;27178;49.460;10.850;2023-03-03T03:44:00;15.87;;;14.17;;
41436;SDS011;27178;49.460;10.850;2023-03-03T03:46:28;17.23;;;15.00;;
41436;SDS011;27178;49.460;10.850;2023-03-03T03:48:57;17.33;;;15.07;;
41436;SDS011;27178;49.460;10.850;2023-03-03T03:51:25;16.07;;;14.10;;
41436;SDS011;27178;49.460;10.850;2023-03-03T03:53:55;16.93;;;14.83;;
41436;SDS011;27178;49.460;10.850;2023-03-03T03:56:24;16.33;;;13.87;;
41436;SDS011;27178;49.460;10.850;2023-03-03T03:58:52;15.73;;;13.73;;
41436;SDS011;27178;49.460;10.850;2023-03-03T04:01:20;15.93;;;14.23;;
41436;SDS011;27178;49.460;10.850;2023-03-03T04:03:49;16.23;;;14.07;;
41436;SDS011;27178;49.460;10.850;2023-03-03T04:06:17;18.60;;;14.27;;
41436;SDS011;27178;49.460;10.850;2023-03-03T04:08:46;16.43;;;14.27;;
41436;SDS011;27178;49.460;10.850;2023-03-03T04:11:15;16.40;;;14.57;;
41436;SDS011;27178;49.460;10.850;2023-03-03T04:13:44;17.63;;;14.90;;
41436;SDS011;27178;49.460;10.850;2023-03-03T04:16:12;18.07;;;15.53;;
41436;SDS011;27178;49.460;10.850;2023-03-03T04:18:40;16.00;;;13.73;;
41436;SDS011;27178;49.460;10.850;2023-03-03T04:21:12;17.80;;;14.97;;
41436;SDS011;27178;49.460;10.850;2023-03-03T04:23:41;17.77;;;15.63;;
41436;SDS011;27178;49.460;10.850;2023-03-03T04:26:10;16.33;;;14.30;;
41436;SDS011;27178;49.460;10.850;2023-03-03T04:28:39;16.27;;;14.00;;
41436;SDS011;27178;49.460;10.850;2023-03-03T04:31:08;18.07;;;15.73;;
41436;SDS011;27178;49.460;10.850;2023-03-03T04:33:36;17.83;;;14.63;;
41436;SDS011;27178;49.460;10.850;2023-03-03T04:36:05;18.37;;;15.57;;
41436;SDS011;27178;49.460;10.850;2023-03-03T04:38:33;18.37;;;15.23;;
41436;SDS011;27178;49.460;10.850;2023-03-03T04:41:02;17.50;;;14.53;;
41436;SDS011;27178;49.460;10.850;2023-03-03T04:43:31;21.10;;;15.37;;
41436;SDS011;27178;49.460;10.850;2023-03-03T04:46:00;18.33;;;15.23;;
41436;SDS011;27178;49.460;10.850;2023-03-03T04:48:29;16.73;;;14.77;;
41436;SDS011;27178;49.460;10.850;2023-03-03T04:50:57;18.43;;;15.17;;
41436;SDS011;27178;49.460;10.850;2023-03-03T04:53:25;17.57;;;15.00;;
41436;SDS011;27178;49.460;10.850;2023-03-03T04:55:54;16.93;;;14.53;;
41436;SDS011;27178;49.460;10.850;2023-03-03T04:58:23;19.53;;;16.20;;
41436;SDS011;27178;49.460;10.850;2023-03-03T05:00:52;18.50;;;16.53;;
41436;SDS011;27178;49.460;10.850;2023-03-03T05:03:23;18.37;;;15.73;;
41436;SDS011;27178;49.460;10.850;2023-03-03T05:05:52;17.93;;;15.87;;
41436;SDS011;27178;49.460;10.850;2023-03-03T05:08:21;18.33;;;15.83;;
41436;SDS011;27178;49.460;10.850;2023-03-03T05:10:50;18.53;;;15.93;;
41436;SDS011;27178;49.460;10.850;2023-03-03T05:13:19;20.30;;;16.10;;
41436;SDS011;27178;49.460;10.850;2023-03-03T05:15:48;16.77;;;14.80;;
41436;SDS011;27178;49.460;10.850;2023-03-03T05:18:17;18.53;;;16.23;;
41436;SDS011;27178;49.460;10.850;2023-03-03T05:20:48;19.83;;;16.07;;
41436;SDS011;27178;49.460;10.850;2023-03-03T05:23:17;19.17;;;16.10;;
41436;SDS011;27178;49.460;10.850;2023-03-03T05:25:46;18.13;;;16.23;;
41436;SDS011;27178;49.460;10.850;2023-03-03T05:28:15;20.33;;;17.20;;
41436;SDS011;27178;49.460;10.850;2023-03-03T05:30:44;20.97;;;17.70;;
41436;SDS011;27178;49.460;10.850;2023-03-03T05:33:13;21.27;;;18.03;;
41436;SDS011;27178;49.460;10.850;2023-03-03T05:35:43;21.23;;;16.77;;
41436;SDS011;27178;49.460;10.850;2023-03-03T05:38:13;22.43;;;17.87;;
41436;SDS011;27178;49.460;10.850;2023-03-03T05:40:41;19.40;;;16.60;;
41436;SDS011;27178;49.460;10.850;2023-03-03T05:43:10;20.77;;;17.93;;
41436;SDS011;27178;49.460;10.850;2023-03-03T05:45:38;19.00;;;17.00;;
41436;SDS011;27178;49.460;10.850;2023-03-03T05:48:07;22.03;;;17.20;;
41436;SDS011;27178;49.460;10.850;2023-03-03T05:50:36;19.30;;;16.73;;
41436;SDS011;27178;49.460;10.850;2023-03-03T05:53:04;20.67;;;17.27;;
41436;SDS011;27178;49.460;10.850;2023-03-03T05:55:34;22.03;;;17.40;;
41436;SDS011;27178;49.460;10.850;2023-03-03T05:58:03;20.23;;;17.83;;
41436;SDS011;27178;49.460;10.850;2023-03-03T06:04:19;18.10;;;16.20;;
41436;SDS011;27178;49.460;10.850;2023-03-03T06:06:47;20.63;;;17.80;;
41436;SDS011;27178;49.460;10.850;2023-03-03T06:09:16;20.40;;;17.37;;
41436;SDS011;27178;49.460;10.850;2023-03-03T06:11:47;22.27;;;19.20;;
41436;SDS011;27178;49.460;10.850;2023-03-03T06:14:18;23.80;;;19.50;;
41436;SDS011;27178;49.460;10.850;2023-03-03T06:16:46;20.80;;;18.00;;
41436;SDS011;27178;49.460;10.850;2023-03-03T06:19:15;22.37;;;18.13;;
41436;SDS011;27178;49.460;10.850;2023-03-03T06:21:43;22.63;;;18.40;;
41436;SDS011;27178;49.460;10.850;2023-03-03T06:24:11;22.03;;;18.90;;
41436;SDS011;27178;49.460;10.850;2023-03-03T06:26:40;21.87;;;18.47;;
41436;SDS011;27178;49.460;10.850;2023-03-03T06:29:09;23.17;;;19.37;;
41436;SDS011;27178;49.460;10.850;2023-03-03T06:31:40;23.07;;;19.93;;
41436;SDS011;27178;49.460;10.850;2023-03-03T06:34:09;23.70;;;19.00;;
41436;SDS011;27178;49.460;10.850;2023-03-03T06:36:37;23.10;;;19.80;;
41436;SDS011;27178;49.460;10.850;2023-03-03T06:39:06;23.03;;;19.70;;
41436;SDS011;27178;49.460;10.850;2023-03-03T06:41:34;29.13;;;23.13;;
41436;SDS011;27178;49.460;10.850;2023-03-03T06:44:02;38.93;;;30.63;;
41436;SDS011;27178;49.460;10.850;2023-03-03T06:46:33;43.83;;;33.73;;
41436;SDS011;27178;49.460;10.850;2023-03-03T06:49:01;42.33;;;32.63;;
41436;SDS011;27178;49.460;10.850;2023-03-03T06:51:30;44.27;;;34.23;;
41436;SDS011;27178;49.460;10.850;2023-03-03T06:54:00;40.97;;;30.77;;
41436;SDS011;27178;49.460;10.850;2023-03-03T06:56:33;33.83;;;26.80;;
41436;SDS011;27178;49.460;10.850;2023-03-03T06:59:05;28.77;;;24.07;;
41436;SDS011;27178;49.460;10.850;2023-03-03T07:01:39;27.03;;;22.53;;
41436;SDS011;27178;49.460;10.850;2023-03-03T07:04:09;31.10;;;25.83;;
41436;SDS011;27178;49.460;10.850;2023-03-03T07:06:43;26.77;;;22.00;;
41436;SDS011;27178;49.460;10.850;2023-03-03T07:09:14;26.30;;;22.27;;
41436;SDS011;27178;49.460;10.850;2023-03-03T07:11:49;28.80;;;22.43;;
41436;SDS011;27178;49.460;10.850;2023-03-03T07:14:18;26.77;;;22.17;;
41436;SDS011;27178;49.460;10.850;2023-03-03T07:16:51;28.93;;;24.17;;
41436;SDS011;27178;49.460;10.850;2023-03-03T07:19:25;34.17;;;27.17;;
41436;SDS011;27178;49.460;10.850;2023-03-03T07:22:00;29.60;;;25.53;;
41436;SDS011;27178;49.460;10.850;2023-03-03T07:24:41;31.97;;;27.47;;
41436;SDS011;27178;49.460;10.850;2023-03-03T07:27:12;32.87;;;26.47;;
41436;SDS011;27178;49.460;10.850;2023-03-03T07:29:44;29.77;;;23.83;;
41436;SDS011;27178;49.460;10.850;2023-03-03T07:32:20;30.33;;;25.20;;
41436;SDS011;27178;49.460;10.850;2023-03-03T07:34:54;26.77;;;23.40;;
41436;SDS011;27178;49.460;10.850;2023-03-03T07:37:26;32.13;;;25.93;;
41436;SDS011;27178;49.460;10.850;2023-03-03T07:39:57;31.53;;;25.23;;
41436;SDS011;27178;49.460;10.850;2023-03-03T07:42:28;30.97;;;25.87;;
41436;SDS011;27178;49.460;10.850;2023-03-03T07:45:18;28.50;;;24.50;;
41436;SDS011;27178;49.460;10.850;2023-03-03T07:47:54;30.67;;;24.33;;
41436;SDS011;27178;49.460;10.850;2023-03-03T07:50:35;27.53;;;22.63;;
41436;SDS011;27178;49.460;10.850;2023-03-03T07:53:04;29.87;;;24.23;;
41436;SDS011;27178;49.460;10.850;2023-03-03T07:55:41;30.97;;;24.57;;
41436;SDS011;27178;49.460;10.850;2023-03-03T07:58:16;29.67;;;24.13;;
41436;SDS011;27178;49.460;10.850;2023-03-03T08:03:48;29.57;;;24.17;;
41436;SDS011;27178;49.460;10.850;2023-03-03T08:09:29;29.43;;;23.97;;
41436;SDS011;27178;49.460;10.850;2023-03-03T08:15:16;28.27;;;24.40;;
41436;SDS011;27178;49.460;10.850;2023-03-03T08:17:46;32.40;;;25.40;;
41436;SDS011;27178;49.460;10.850;2023-03-03T08:23:13;29.67;;;24.27;;
41436;SDS011;27178;49.460;10.850;2023-03-03T08:25:43;32.63;;;26.20;;
41436;SDS011;27178;49.460;10.850;2023-03-03T08:28:12;30.33;;;25.23;;
41436;SDS011;27178;49.460;10.850;2023-03-03T08:30:42;30.13;;;24.53;;
41436;SDS011;27178;49.460;10.850;2023-03-03T08:33:11;28.47;;;24.17;;
41436;SDS011;27178;49.460;10.850;2023-03-03T08:35:40;30.97;;;25.37;;
41436;SDS011;27178;49.460;10.850;2023-03-03T08:38:10;30.87;;;25.07;;
41436;SDS011;27178;49.460;10.850;2023-03-03T08:40:40;27.93;;;23.53;;
41436;SDS011;27178;49.460;10.850;2023-03-03T08:43:09;28.93;;;23.00;;
41436;SDS011;27178;49.460;10.850;2023-03-03T08:45:41;30.07;;;24.87;;
41436;SDS011;27178;49.460;10.850;2023-03-03T08:48:10;26.60;;;23.03;;
41436;SDS011;27178;49.460;10.850;2023-03-03T08:50:39;27.63;;;22.83;;
41436;SDS011;27178;49.460;10.850;2023-03-03T08:53:10;26.97;;;23.50;;
41436;SDS011;27178;49.460;10.850;2023-03-03T08:55:38;27.73;;;23.40;;
41436;SDS011;27178;49.460;10.850;2023-03-03T08:58:07;27.53;;;22.40;;
41436;SDS011;27178;49.460;10.850;2023-03-03T09:00:35;27.63;;;23.47;;
41436;SDS011;27178;49.460;10.850;2023-03-03T09:03:05;25.97;;;23.03;;
41436;SDS011;27178;49.460;10.850;2023-03-03T09:05:34;26.97;;;22.90;;
41436;SDS011;27178;49.460;10.850;2023-03-03T09:08:04;27.23;;;23.60;;
41436;SDS011;27178;49.460;10.850;2023-03-03T09:10:33;27.77;;;22.60;;
41436;SDS011;27178;49.460;10.850;2023-03-03T09:13:03;26.07;;;22.03;;
41436;SDS011;27178;49.460;10.850;2023-03-03T09:15:39;29.63;;;22.33;;
41436;SDS011;27178;49.460;10.850;2023-03-03T09:18:15;25.57;;;21.77;;
41436;SDS011;27178;49.460;10.850;2023-03-03T09:20:45;23.97;;;21.27;;
41436;SDS011;27178;49.460;10.850;2023-03-03T09:23:20;27.43;;;22.80;;
41436;SDS011;27178;49.460;10.850;2023-03-03T09:25:58;25.73;;;21.63;;
41436;SDS011;27178;49.460;10.850;2023-03-03T09:28:44;26.37;;;22.47;;
41436;SDS011;27178;49.460;10.850;2023-03-03T09:31:16;26.43;;;22.03;;
41436;SDS011;27178;49.460;10.850;2023-03-03T09:33:51;25.03;;;21.97;;
41436;SDS011;27178;49.460;10.850;2023-03-03T09:36:24;26.83;;;22.70;;
41436;SDS011;27178;49.460;10.850;2023-03-03T09:38:54;25.77;;;21.93;;
41436;SDS011;27178;49.460;10.850;2023-03-03T09:41:38;25.47;;;22.03;;
41436;SDS011;27178;49.460;10.850;2023-03-03T09:47:55;24.37;;;21.07;;
41436;SDS011;27178;49.460;10.850;2023-03-03T09:50:47;23.33;;;20.83;;
41436;SDS011;27178;49.460;10.850;2023-03-03T09:53:30;25.40;;;22.23;;
41436;SDS011;27178;49.460;10.850;2023-03-03T09:56:18;24.10;;;20.70;;
41436;SDS011;27178;49.460;10.850;2023-03-03T09:59:02;25.37;;;22.07;;
41436;SDS011;27178;49.460;10.850;2023-03-03T10:01:47;23.83;;;20.97;;
41436;SDS011;27178;49.460;10.850;2023-03-03T10:04:31;25.07;;;20.83;;
41436;SDS011;27178;49.460;10.850;2023-03-03T10:07:21;24.83;;;20.53;;
41436;SDS011;27178;49.460;10.850;2023-03-03T10:09:57;21.80;;;19.47;;
41436;SDS011;27178;49.460;10.850;2023-03-03T10:12:38;27.17;;;22.53;;
41436;SDS011;27178;49.460;10.850;2023-03-03T10:15:19;22.53;;;20.07;;
41436;SDS011;27178;49.460;10.850;2023-03-03T10:17:55;27.37;;;23.07;;
41436;SDS011;27178;49.460;10.850;2023-03-03T10:20:37;24.67;;;21.07;;
41436;SDS011;27178;49.460;10.850;2023-03-03T10:23:18;25.33;;;21.73;;
41436;SDS011;27178;49.460;10.850;2023-03-03T10:25:57;24.47;;;20.50;;
41436;SDS011;27178;49.460;10.850;2023-03-03T10:31:38;21.77;;;18.77;;
41436;SDS011;27178;49.460;10.850;2023-03-03T10:34:26;22.73;;;18.67;;
41436;SDS011;27178;49.460;10.850;2023-03-03T10:37:16;21.60;;;19.33;;
41436;SDS011;27178;49.460;10.850;2023-03-03T10:39:58;23.03;;;19.80;;
41436;SDS011;27178;49.460;10.850;2023-03-03T10:42:40;21.43;;;19.10;;
41436;SDS011;27178;49.460;10.850;2023-03-03T10:45:21;21.27;;;18.93;;
41436;SDS011;27178;49.460;10.850;2023-03-03T10:48:11;23.13;;;19.43;;
41436;SDS011;27178;49.460;10.850;2023-03-03T10:50:57;20.60;;;18.33;;
41436;SDS011;27178;49.460;10.850;2023-03-03T10:53:36;20.90;;;18.40;;
41436;SDS011;27178;49.460;10.850;2023-03-03T10:56:19;23.67;;;20.10;;
41436;SDS011;27178;49.460;10.850;2023-03-03T10:59:08;24.97;;;19.30;;
41436;SDS011;27178;49.460;10.850;2023-03-03T11:01:50;21.23;;;18.93;;
41436;SDS011;27178;49.460;10.850;2023-03-03T11:04:27;22.63;;;19.20;;
41436;SDS011;27178;49.460;10.850;2023-03-03T11:07:10;21.30;;;18.50;;
41436;SDS011;27178;49.460;10.850;2023-03-03T11:09:48;21.20;;;19.00;;
41436;SDS011;27178;49.460;10.850;2023-03-03T11:12:26;21.27;;;18.97;;
41436;SDS011;27178;49.460;10.850;2023-03-03T11:15:10;20.03;;;17.93;;
41436;SDS011;27178;49.460;10.850;2023-03-03T11:17:53;21.30;;;19.00;;
41436;SDS011;27178;49.460;10.850;2023-03-03T11:20:38;21.00;;;18.70;;
41436;SDS011;27178;49.460;10.850;2023-03-03T11:23:16;20.60;;;16.67;;
41436;SDS011;27178;49.460;10.850;2023-03-03T11:26:07;19.70;;;17.60;;
41436;SDS011;27178;49.460;10.850;2023-03-03T11:28:44;19.67;;;17.00;;
41436;SDS011;27178;49.460;10.850;2023-03-03T11:31:22;18.58;;;16.50;;
41436;SDS011;27178;49.460;10.850;2023-03-03T11:33:58;21.40;;;18.33;;
41436;SDS011;27178;49.460;10.850;2023-03-03T11:36:37;19.85;;;17.50;;
41436;SDS011;27178;49.460;10.850;2023-03-03T11:39:10;19.60;;;17.13;;
41436;SDS011;27178;49.460;10.850;2023-03-03T11:41:45;20.08;;;17.33;;
41436;SDS011;27178;49.460;10.850;2023-03-03T11:44:26;18.25;;;16.23;;
41436;SDS011;27178;49.460;10.850;2023-03-03T11:46:59;17.42;;;15.57;;
41436;SDS011;27178;49.460;10.850;2023-03-03T11:49:34;18.48;;;16.58;;
41436;SDS011;27178;49.460;10.850;2023-03-03T11:52:13;19.00;;;16.85;;
41436;SDS011;27178;49.460;10.850;2023-03-03T11:54:51;19.35;;;17.33;;
41436;SDS011;27178;49.460;10.850;2023-03-03T11:57:25;18.15;;;16.25;;
41436;SDS011;27178;49.460;10.850;2023-03-03T12:00:02;18.35;;;16.45;;
41436;SDS011;27178;49.460;10.850;2023-03-03T12:02:54;17.50;;;15.70;;
41436;SDS011;27178;49.460;10.850;2023-03-03T12:05:45;17.58;;;15.77;;
41436;SDS011;27178;49.460;10.850;2023-03-03T12:08:31;18.45;;;16.50;;
41436;SDS011;27178;49.460;10.850;2023-03-03T12:11:12;17.27;;;15.40;;
41436;SDS011;27178;49.460;10.850;2023-03-03T12:13:52;17.80;;;15.63;;
41436;SDS011;27178;49.460;10.850;2023-03-03T12:16:31;17.50;;;15.70;;
41436;SDS011;27178;49.460;10.850;2023-03-03T12:19:19;16.10;;;14.40;;
41436;SDS011;27178;49.460;10.850;2023-03-03T12:22:04;18.20;;;16.40;;
41436;SDS011;27178;49.460;10.850;2023-03-03T12:24:43;17.17;;;14.70;;
41436;SDS011;27178;49.460;10.850;2023-03-03T12:27:21;15.90;;;14.27;;
41436;SDS011;27178;49.460;10.850;2023-03-03T12:29:58;17.20;;;15.50;;
41436;SDS011;27178;49.460;10.850;2023-03-03T12:32:44;16.00;;;14.30;;
41436;SDS011;27178;49.460;10.850;2023-03-03T12:35:24;16.80;;;15.18;;
41436;SDS011;27178;49.460;10.850;2023-03-03T12:37:58;16.45;;;14.75;;
41436;SDS011;27178;49.460;10.850;2023-03-03T12:40:35;14.95;;;13.48;;
41436;SDS011;27178;49.460;10.850;2023-03-03T12:43:15;14.88;;;13.38;;
41436;SDS011;27178;49.460;10.850;2023-03-03T12:45:50;14.40;;;13.02;;
41436;SDS011;27178;49.460;10.850;2023-03-03T12:48:31;15.02;;;13.23;;
41436;SDS011;27178;49.460;10.850;2023-03-03T12:51:06;14.80;;;13.30;;
41436;SDS011;27178;49.460;10.850;2023-03-03T12:54:04;15.38;;;13.88;;
41436;SDS011;27178;49.460;10.850;2023-03-03T12:56:47;14.38;;;12.98;;
41436;SDS011;27178;49.460;10.850;2023-03-03T12:59:20;14.57;;;13.18;;
41436;SDS011;27178;49.460;10.850;2023-03-03T13:02:02;14.00;;;12.63;;
41436;SDS011;27178;49.460;10.850;2023-03-03T13:04:43;14.05;;;12.65;;
41436;SDS011;27178;49.460;10.850;2023-03-03T13:07:20;14.27;;;12.60;;
41436;SDS011;27178;49.460;10.850;2023-03-03T13:09:58;14.77;;;12.98;;
41436;SDS011;27178;49.460;10.850;2023-03-03T13:12:41;14.02;;;12.52;;
41436;SDS011;27178;49.460;10.850;2023-03-03T13:15:14;13.23;;;11.93;;
41436;SDS011;27178;49.460;10.850;2023-03-03T13:17:58;13.30;;;12.02;;
41436;SDS011;27178;49.460;10.850;2023-03-03T13:20:44;12.60;;;11.38;;
41436;SDS011;27178;49.460;10.850;2023-03-03T13:23:20;13.95;;;12.55;;
41436;SDS011;27178;49.460;10.850;2023-03-03T13:25:59;14.55;;;13.07;;
41436;SDS011;27178;49.460;10.850;2023-03-03T13:28:36;13.40;;;12.10;;
41436;SDS011;27178;49.460;10.850;2023-03-03T13:31:11;12.88;;;11.60;;
41436;SDS011;27178;49.460;10.850;2023-03-03T13:33:47;11.60;;;10.40;;
41436;SDS011;27178;49.460;10.850;2023-03-03T13:36:20;13.35;;;11.98;;
41436;SDS011;27178;49.460;10.850;2023-03-03T13:38:58;13.15;;;11.85;;
41436;SDS011;27178;49.460;10.850;2023-03-03T13:41:32;12.30;;;11.10;;
41436;SDS011;27178;49.460;10.850;2023-03-03T13:44:10;13.57;;;12.18;;
41436;SDS011;27178;49.460;10.850;2023-03-03T13:46:42;13.85;;;11.90;;
41436;SDS011;27178;49.460;10.850;2023-03-03T13:49:30;13.32;;;12.02;;
41436;SDS011;27178;49.460;10.850;2023-03-03T13:52:06;12.43;;;11.20;;
41436;SDS011;27178;49.460;10.850;2023-03-03T13:54:55;13.43;;;11.32;;
41436;SDS011;27178;49.460;10.850;2023-03-03T13:57:43;11.98;;;10.80;;
41436;SDS011;27178;49.460;10.850;2023-03-03T14:00:26;11.95;;;10.50;;
41436;SDS011;27178;49.460;10.850;2023-03-03T14:03:07;11.82;;;10.57;;
41436;SDS011;27178;49.460;10.850;2023-03-03T14:05:50;10.30;;;9.30;;
41436;SDS011;27178;49.460;10.850;2023-03-03T14:08:24;10.68;;;9.68;;
41436;SDS011;27178;49.460;10.850;2023-03-03T14:11:06;10.75;;;9.65;;
41436;SDS011;27178;49.460;10.850;2023-03-03T14:13:41;10.70;;;9.60;;
41436;SDS011;27178;49.460;10.850;2023-03-03T14:16:19;12.65;;;10.25;;
41436;SDS011;27178;49.460;10.850;2023-03-03T14:18:58;10.02;;;9.02;;
41436;SDS011;27178;49.460;10.850;2023-03-03T14:21:34;11.00;;;9.90;;
41436;SDS011;27178;49.460;10.850;2023-03-03T14:24:10;11.02;;;9.93;;
41436;SDS011;27178;49.460;10.850;2023-03-03T14:26:44;11.13;;;10.00;;
41436;SDS011;27178;49.460;10.850;2023-03-03T14:29:20;14.00;;;10.20;;
41436;SDS011;27178;49.460;10.850;2023-03-03T14:31:57;10.60;;;9.50;;
41436;SDS011;27178;49.460;10.850;2023-03-03T14:34:34;11.32;;;9.63;;
41436;SDS011;27178;49.460;10.850;2023-03-03T14:37:18;10.63;;;9.27;;
41436;SDS011;27178;49.460;10.850;2023-03-03T14:39:50;9.93;;;8.93;;
41436;SDS011;27178;49.460;10.850;2023-03-03T14:42:29;9.20;;;8.35;;
41436;SDS011;27178;49.460;10.850;2023-03-03T14:45:00;10.32;;;9.23;;
41436;SDS011;27178;49.460;10.850;2023-03-03T14:47:56;9.82;;;8.40;;
41436;SDS011;27178;49.460;10.850;2023-03-03T14:50:30;9.75;;;8.85;;
41436;SDS011;27178;49.460;10.850;2023-03-03T14:53:10;10.20;;;8.88;;
41436;SDS011;27178;49.460;10.850;2023-03-03T14:55:42;8.55;;;7.70;;
41436;SDS011;27178;49.460;10.850;2023-03-03T14:58:23;10.15;;;9.05;;
41436;SDS011;27178;49.460;10.850;2023-03-03T15:01:06;10.23;;;8.05;;
41436;SDS011;27178;49.460;10.850;2023-03-03T15:03:44;9.35;;;8.45;;
41436;SDS011;27178;49.460;10.850;2023-03-03T15:06:28;9.43;;;7.82;;
41436;SDS011;27178;49.460;10.850;2023-03-03T15:12:02;11.18;;;8.38;;
41436;SDS011;27178;49.460;10.850;2023-03-03T15:14:47;8.98;;;8.07;;
41436;SDS011;27178;49.460;10.850;2023-03-03T15:17:24;8.80;;;7.88;;
41436;SDS011;27178;49.460;10.850;2023-03-03T15:20:01;8.63;;;7.68;;
41436;SDS011;27178;49.460;10.850;2023-03-03T15:22:45;9.27;;;8.32;;